createdAt,value
2018-05-29T00:00:33.299Z,1.10
2018-05-29T00:02:59.575Z,0.70
2018-05-29T00:05:26.302Z,1.00
2018-05-29T00:07:52.515Z,1.07
2018-05-29T00:10:18.755Z,0.90
2018-05-29T00:12:45.350Z,0.80
2018-05-29T00:15:11.594Z,0.87
2018-05-29T00:17:37.805Z,0.80
2018-05-29T00:20:04.442Z,0.90
2018-05-29T00:22:30.681Z,0.70
2018-05-29T00:24:56.870Z,1.60
2018-05-29T00:27:23.447Z,1.10
2018-05-29T00:29:49.657Z,1.27
2018-05-29T00:32:15.872Z,0.90
2018-05-29T00:34:42.515Z,1.10
2018-05-29T00:37:08.767Z,1.27
2018-05-29T00:39:34.975Z,0.80
2018-05-29T00:42:01.526Z,0.90
2018-05-29T00:44:27.771Z,1.10
2018-05-29T00:46:54.221Z,1.13
2018-05-29T00:49:20.845Z,1.23
2018-05-29T00:51:47.099Z,1.07
2018-05-29T00:54:13.319Z,0.93
2018-05-29T00:56:39.853Z,1.07
2018-05-29T00:59:06.082Z,0.97
2018-05-29T01:01:32.372Z,0.93
2018-05-29T01:03:58.930Z,1.27
2018-05-29T01:06:25.143Z,1.07
2018-05-29T01:08:51.534Z,1.10
2018-05-29T01:11:18.136Z,0.97
2018-05-29T01:13:44.374Z,1.00
2018-05-29T01:16:10.646Z,1.03
2018-05-29T01:18:37.214Z,1.20
2018-05-29T01:21:03.438Z,0.87
2018-05-29T01:23:29.677Z,1.20
2018-05-29T01:25:56.382Z,1.10
2018-05-29T01:28:22.662Z,1.20
2018-05-29T01:30:48.895Z,1.23
2018-05-29T01:33:15.348Z,1.13
2018-05-29T01:35:41.624Z,1.20
2018-05-29T01:38:07.798Z,1.10
2018-05-29T01:40:34.417Z,1.13
2018-05-29T01:43:00.618Z,1.17
2018-05-29T01:45:26.885Z,1.30
2018-05-29T01:47:53.655Z,1.13
2018-05-29T01:50:19.903Z,1.40
2018-05-29T01:52:46.118Z,1.10
2018-05-29T01:55:12.722Z,1.17
2018-05-29T01:57:38.924Z,1.07
2018-05-29T02:00:05.190Z,0.80
2018-05-29T02:02:31.811Z,1.13
2018-05-29T02:04:58.018Z,1.27
2018-05-29T02:07:24.279Z,1.43
2018-05-29T02:09:50.884Z,1.57
2018-05-29T02:12:17.113Z,1.20
2018-05-29T02:14:43.350Z,1.43
2018-05-29T02:17:09.774Z,1.20
2018-05-29T02:19:36.055Z,1.30
2018-05-29T02:22:02.253Z,1.20
2018-05-29T02:24:28.949Z,1.10
2018-05-29T02:26:55.194Z,1.20
2018-05-29T02:29:21.460Z,1.17
2018-05-29T02:31:48.069Z,1.00
2018-05-29T02:34:14.336Z,1.20
2018-05-29T02:36:40.571Z,1.17
2018-05-29T02:39:07.234Z,1.10
2018-05-29T02:41:33.483Z,1.13
2018-05-29T02:43:59.820Z,1.10
2018-05-29T02:46:26.288Z,1.13
2018-05-29T02:48:52.698Z,1.33
2018-05-29T02:51:18.948Z,1.00
2018-05-29T02:53:45.463Z,1.40
2018-05-29T02:56:11.669Z,1.50
2018-05-29T02:58:37.911Z,1.20
2018-05-29T03:01:04.477Z,1.20
2018-05-29T03:03:30.730Z,1.50
2018-05-29T03:05:57.008Z,1.10
2018-05-29T03:08:23.448Z,1.60
2018-05-29T03:10:49.658Z,1.70
2018-05-29T03:13:15.903Z,1.33
2018-05-29T03:15:42.288Z,1.40
2018-05-29T03:18:08.484Z,1.50
2018-05-29T03:20:34.697Z,1.40
2018-05-29T03:23:01.444Z,1.27
2018-05-29T03:25:27.693Z,1.70
2018-05-29T03:27:53.898Z,1.30
2018-05-29T03:30:20.357Z,1.70
2018-05-29T03:32:46.577Z,1.40
2018-05-29T03:35:12.815Z,1.30
2018-05-29T03:37:39.386Z,1.53
2018-05-29T03:40:05.617Z,1.33
2018-05-29T03:42:31.839Z,1.40
2018-05-29T03:44:58.239Z,1.20
2018-05-29T03:47:24.454Z,1.40
2018-05-29T03:49:50.749Z,1.27
2018-05-29T03:52:17.500Z,1.37
2018-05-29T03:54:43.689Z,1.90
2018-05-29T03:57:09.895Z,1.40
2018-05-29T03:59:36.507Z,1.20
2018-05-29T04:02:02.751Z,1.40
2018-05-29T04:04:29.009Z,1.43
2018-05-29T04:06:55.509Z,1.70
2018-05-29T04:09:21.782Z,1.50
2018-05-29T04:11:48.006Z,1.27
2018-05-29T04:14:14.550Z,1.30
2018-05-29T04:16:40.785Z,1.23
2018-05-29T04:19:07.009Z,1.57
2018-05-29T04:21:33.977Z,1.33
2018-05-29T04:24:00.218Z,1.50
2018-05-29T04:26:26.438Z,1.50
2018-05-29T04:28:53.081Z,1.17
2018-05-29T04:31:19.267Z,1.27
2018-05-29T04:33:45.487Z,1.57
2018-05-29T04:36:12.202Z,1.13
2018-05-29T04:38:38.400Z,1.20
2018-05-29T04:41:04.668Z,1.10
2018-05-29T04:43:31.153Z,1.50
2018-05-29T04:45:57.372Z,1.10
2018-05-29T04:48:23.629Z,1.30
2018-05-29T04:50:50.223Z,1.13
2018-05-29T04:53:16.492Z,1.30
2018-05-29T04:55:42.688Z,1.47
2018-05-29T04:58:09.231Z,1.33
2018-05-29T05:00:35.487Z,1.10
2018-05-29T05:03:01.693Z,1.07
2018-05-29T05:05:28.065Z,1.30
2018-05-29T05:07:54.273Z,1.20
2018-05-29T05:10:20.513Z,1.40
2018-05-29T05:12:47.099Z,1.10
2018-05-29T05:15:13.333Z,1.50
2018-05-29T05:17:39.565Z,1.10
2018-05-29T05:20:06.118Z,1.40
2018-05-29T05:22:32.355Z,1.10
2018-05-29T05:24:58.604Z,1.23
2018-05-29T05:27:24.984Z,1.13
2018-05-29T05:29:51.179Z,0.93
2018-05-29T05:32:17.421Z,1.50
2018-05-29T05:34:43.941Z,1.30
2018-05-29T05:37:10.174Z,1.33
2018-05-29T05:39:36.402Z,0.90
2018-05-29T05:42:02.816Z,1.17
2018-05-29T05:44:29.064Z,1.20
2018-05-29T05:46:55.296Z,1.23
2018-05-29T05:49:21.841Z,1.37
2018-05-29T05:51:48.285Z,1.27
2018-05-29T05:54:14.492Z,1.20
2018-05-29T05:56:41.106Z,1.30
2018-05-29T05:59:07.308Z,1.10
2018-05-29T06:01:33.526Z,1.20
2018-05-29T06:04:00.170Z,1.33
2018-05-29T06:06:26.406Z,1.60
2018-05-29T06:08:52.667Z,1.20
2018-05-29T06:11:19.119Z,1.30
2018-05-29T06:13:45.381Z,1.30
2018-05-29T06:16:11.623Z,1.17
2018-05-29T06:18:38.155Z,1.20
2018-05-29T06:21:04.398Z,1.20
2018-05-29T06:23:30.641Z,0.90
2018-05-29T06:30:49.529Z,1.20
2018-05-29T06:33:16.075Z,1.20
2018-05-29T06:35:42.315Z,1.05
2018-05-29T06:40:34.939Z,1.20
2018-05-29T06:43:01.144Z,1.35
2018-05-29T06:47:53.834Z,1.20
2018-05-29T06:50:20.061Z,1.20
2018-05-29T06:52:46.437Z,1.35
2018-05-29T06:55:12.981Z,1.40
2018-05-29T06:57:39.233Z,1.40
2018-05-29T07:00:05.497Z,1.30
2018-05-29T07:02:32.019Z,1.50
2018-05-29T07:04:58.263Z,1.50
2018-05-29T07:07:24.451Z,1.45
2018-05-29T07:12:17.031Z,2.10
2018-05-29T07:14:43.332Z,1.40
2018-05-29T07:17:10.020Z,1.43
2018-05-29T07:19:36.226Z,1.80
2018-05-29T07:26:54.736Z,2.00
2018-05-29T07:31:47.469Z,1.80
2018-05-29T07:41:32.244Z,2.03
2018-05-29T07:43:58.463Z,2.07
2018-05-29T07:46:25.206Z,2.10
2018-05-29T07:48:51.395Z,2.10
2018-05-29T07:56:10.452Z,2.07
2018-05-29T08:03:29.173Z,2.40
2018-05-29T08:22:58.865Z,2.43
2018-05-29T08:25:25.072Z,2.30
2018-05-29T08:27:51.260Z,2.30
2018-05-29T08:30:17.848Z,2.73
2018-05-29T08:32:44.036Z,2.43
2018-05-29T08:35:10.323Z,2.73
2018-05-29T08:37:37.011Z,2.60
2018-05-29T08:40:03.244Z,2.23
2018-05-29T08:42:29.434Z,2.40
2018-05-29T08:44:56.075Z,2.57
2018-05-29T08:47:22.243Z,2.80
2018-05-29T08:49:48.440Z,2.60
2018-05-29T08:54:41.246Z,3.50
2018-05-29T08:57:07.437Z,2.60
2018-05-29T08:59:34.008Z,2.80
2018-05-29T09:02:00.247Z,3.00
2018-05-29T09:04:26.420Z,3.00
2018-05-29T09:06:52.890Z,2.50
2018-05-29T09:09:19.087Z,2.27
2018-05-29T09:11:45.267Z,2.60
2018-05-29T09:14:11.911Z,3.10
2018-05-29T09:16:38.075Z,2.50
2018-05-29T09:19:04.247Z,3.10
2018-05-29T09:21:30.755Z,3.00
2018-05-29T09:23:56.941Z,2.97
2018-05-29T09:26:23.219Z,2.73
2018-05-29T09:28:49.602Z,2.83
2018-05-29T09:31:15.770Z,3.00
2018-05-29T09:33:41.979Z,2.80
2018-05-29T09:38:34.568Z,2.50
2018-05-29T09:41:00.723Z,3.10
2018-05-29T09:43:42.214Z,2.47
2018-05-29T09:46:08.380Z,2.60
2018-05-29T09:48:34.563Z,2.77
2018-05-29T09:51:01.132Z,2.77
2018-05-29T09:53:27.318Z,2.60
2018-05-29T09:55:53.748Z,2.87
2018-05-29T09:58:20.148Z,3.00
2018-05-29T10:00:46.408Z,2.70
2018-05-29T10:03:12.582Z,2.90
2018-05-29T10:05:39.004Z,3.23
2018-05-29T10:08:05.261Z,3.13
2018-05-29T10:10:31.453Z,3.30
2018-05-29T10:12:58.091Z,2.97
2018-05-29T10:15:24.281Z,2.97
2018-05-29T10:17:50.443Z,2.97
2018-05-29T10:20:16.930Z,2.83
2018-05-29T10:22:43.114Z,2.93
2018-05-29T10:25:09.306Z,2.50
2018-05-29T10:27:35.936Z,3.07
2018-05-29T10:30:02.098Z,2.80
2018-05-29T10:32:28.309Z,2.67
2018-05-29T10:34:54.895Z,3.20
2018-05-29T10:37:21.060Z,3.00
2018-05-29T10:39:47.206Z,2.93
2018-05-29T10:42:13.846Z,3.00
2018-05-29T10:44:40.027Z,3.07
2018-05-29T10:47:06.182Z,2.90
2018-05-29T10:49:32.705Z,2.70
2018-05-29T10:51:58.863Z,3.27
2018-05-29T10:54:25.048Z,3.00
2018-05-29T10:56:51.691Z,3.17
2018-05-29T10:59:18.036Z,2.90
2018-05-29T11:01:44.138Z,3.10
2018-05-29T11:04:10.557Z,2.80
2018-05-29T11:06:36.726Z,3.00
2018-05-29T11:09:02.962Z,2.90
2018-05-29T11:11:29.496Z,3.00
2018-05-29T11:13:55.657Z,2.40
2018-05-29T11:16:21.860Z,2.93
2018-05-29T11:18:48.294Z,2.80
2018-05-29T11:21:14.480Z,2.53
2018-05-29T11:23:40.673Z,2.83
2018-05-29T11:26:07.091Z,2.83
2018-05-29T11:28:33.262Z,2.87
2018-05-29T11:30:59.434Z,2.70
2018-05-29T11:33:25.934Z,2.50
2018-05-29T11:35:52.256Z,2.50
2018-05-29T11:38:18.437Z,2.50
2018-05-29T11:40:44.763Z,2.60
2018-05-29T11:43:11.122Z,2.43
2018-05-29T11:45:37.290Z,2.97
2018-05-29T11:48:03.551Z,2.60
2018-05-29T11:50:30.080Z,2.90
2018-05-29T11:52:56.207Z,3.00
2018-05-29T11:58:51.640Z,2.90
2018-05-29T12:01:17.963Z,2.70
2018-05-29T12:03:44.154Z,3.00
2018-05-29T12:06:10.593Z,3.07
2018-05-29T12:08:36.892Z,2.90
2018-05-29T12:11:03.126Z,3.33
2018-05-29T12:13:29.433Z,3.07
2018-05-29T12:15:55.644Z,2.80
2018-05-29T12:18:21.788Z,2.97
2018-05-29T12:20:48.122Z,2.80
2018-05-29T12:23:14.485Z,3.13
2018-05-29T12:25:40.655Z,2.80
2018-05-29T12:28:06.969Z,2.97
2018-05-29T12:30:33.307Z,2.60
2018-05-29T12:32:59.466Z,3.03
2018-05-29T12:35:25.841Z,2.93
2018-05-29T12:37:52.208Z,3.00
2018-05-29T12:40:18.391Z,3.00
2018-05-29T12:42:44.794Z,2.60
2018-05-29T12:45:11.121Z,2.57
2018-05-29T12:47:37.332Z,2.17
2018-05-29T12:50:03.709Z,2.70
2018-05-29T14:01:02.108Z,1.50
2018-05-29T14:03:28.575Z,1.53
2018-05-29T14:05:54.725Z,1.40
2018-05-29T14:08:20.831Z,1.70
2018-05-29T14:10:47.416Z,1.60
2018-05-29T14:13:13.520Z,1.43
2018-05-29T14:15:39.622Z,1.40
2018-05-29T14:18:06.127Z,1.40
2018-05-29T14:20:32.263Z,1.13
2018-05-29T14:22:58.386Z,1.20
2018-05-29T14:25:24.929Z,1.13
2018-05-29T14:27:51.039Z,1.20
2018-05-29T14:30:17.174Z,1.33
2018-05-29T14:32:43.695Z,1.70
2018-05-29T14:35:09.824Z,1.73
2018-05-29T14:37:35.959Z,1.60
2018-05-29T14:40:02.494Z,1.00
2018-05-29T14:42:28.648Z,1.37
2018-05-29T14:44:54.790Z,1.43
2018-05-29T14:47:21.226Z,1.40
2018-05-29T14:49:47.382Z,1.10
2018-05-29T14:52:13.577Z,1.20
2018-05-29T14:54:40.016Z,1.30
2018-05-29T14:57:06.171Z,1.30
2018-05-29T14:59:32.273Z,1.30
2018-05-29T15:01:58.810Z,1.60
2018-05-29T15:04:25.010Z,1.20
2018-05-29T15:06:51.148Z,1.10
2018-05-29T15:09:17.596Z,1.53
2018-05-29T15:11:43.724Z,1.20
2018-05-29T15:14:09.869Z,1.30
2018-05-29T15:16:36.298Z,1.00
2018-05-29T15:19:02.413Z,1.00
2018-05-29T15:21:28.566Z,1.07
2018-05-29T15:23:54.954Z,1.07
2018-05-29T15:26:21.123Z,0.83
2018-05-29T15:28:47.248Z,1.03
2018-05-29T15:31:13.536Z,1.27
2018-05-29T15:33:39.663Z,1.20
2018-05-29T15:36:05.895Z,0.80
2018-05-29T15:38:32.306Z,1.10
2018-05-29T15:40:58.434Z,2.33
2018-05-29T15:43:24.597Z,1.10
2018-05-29T15:45:50.987Z,0.90
2018-05-29T15:48:17.110Z,1.10
2018-05-29T15:50:43.246Z,1.20
2018-05-29T15:53:09.710Z,1.03
2018-05-29T15:55:35.830Z,1.10
2018-05-29T15:58:01.983Z,1.47
2018-05-29T16:00:28.578Z,1.00
2018-05-29T16:02:54.936Z,0.90
2018-05-29T16:05:21.087Z,1.00
2018-05-29T16:07:47.635Z,0.90
2018-05-29T16:10:13.761Z,1.03
2018-05-29T16:12:39.893Z,0.90
2018-05-29T16:15:06.329Z,1.10
2018-05-29T16:17:32.450Z,1.00
2018-05-29T16:19:58.652Z,1.33
2018-05-29T16:22:25.083Z,1.30
2018-05-29T16:24:51.203Z,1.03
2018-05-29T16:27:17.368Z,1.10
2018-05-29T16:29:43.817Z,1.07
2018-05-29T16:32:09.926Z,0.90
2018-05-29T16:34:36.145Z,1.00
2018-05-29T16:37:02.615Z,0.90
2018-05-29T16:39:28.795Z,1.20
2018-05-29T16:41:54.937Z,1.30
2018-05-29T16:44:21.415Z,1.00
2018-05-29T16:46:47.544Z,0.90
2018-05-29T16:49:13.760Z,1.07
2018-05-29T16:51:40.277Z,1.23
2018-05-29T16:54:06.435Z,1.00
2018-05-29T16:56:32.618Z,0.90
2018-05-29T16:58:58.925Z,1.10
2018-05-29T17:01:25.064Z,0.90
2018-05-29T17:03:51.429Z,0.70
2018-05-29T17:06:17.858Z,0.73
2018-05-29T17:08:44.010Z,0.80
2018-05-29T17:11:10.165Z,0.70
2018-05-29T17:13:36.559Z,0.60
2018-05-29T17:16:02.686Z,0.60
2018-05-29T17:18:28.821Z,0.67
2018-05-29T17:20:55.340Z,0.60
2018-05-29T17:23:21.454Z,0.93
2018-05-29T17:25:47.600Z,0.60
2018-05-29T17:28:14.073Z,0.83
2018-05-29T17:30:40.202Z,0.60
2018-05-29T17:33:06.357Z,0.67
2018-05-29T17:35:32.888Z,0.40
2018-05-29T17:37:59.003Z,0.57
2018-05-29T17:40:25.135Z,0.60
2018-05-29T17:42:51.596Z,0.80
2018-05-29T17:45:17.702Z,0.60
2018-05-29T17:47:43.845Z,0.50
2018-05-29T17:50:10.186Z,0.53
2018-05-29T17:52:36.314Z,0.60
2018-05-29T17:55:02.447Z,0.30
2018-05-29T17:57:28.887Z,0.40
2018-05-29T17:59:55.012Z,0.50
2018-05-29T18:04:54.347Z,0.43
2018-05-29T18:07:20.459Z,0.60
2018-05-29T18:09:46.601Z,0.43
2018-05-29T18:12:12.987Z,0.60
2018-05-29T18:14:39.090Z,0.20
2018-05-29T18:17:05.233Z,0.70
2018-05-29T18:19:31.702Z,0.37
2018-05-29T18:21:57.843Z,0.30
2018-05-29T18:24:23.998Z,0.40
2018-05-29T18:26:50.430Z,0.50
2018-05-29T18:29:16.544Z,0.70
2018-05-29T18:31:42.682Z,0.60
2018-05-29T18:34:09.113Z,0.40
2018-05-29T18:36:35.278Z,0.40
2018-05-29T18:39:01.494Z,0.50
2018-05-29T18:41:28.162Z,0.50
2018-05-29T18:43:54.353Z,0.30
2018-05-29T18:46:20.589Z,0.50
2018-05-29T18:48:47.176Z,0.47
2018-05-29T18:51:13.353Z,0.57
2018-05-29T18:53:39.475Z,0.53
2018-05-29T18:56:05.846Z,0.40
2018-05-29T18:58:32.092Z,0.40
2018-05-29T19:00:58.281Z,0.67
2018-05-29T19:03:24.675Z,0.70
2018-05-29T19:05:51.097Z,0.30
2018-05-29T19:08:17.295Z,0.63
2018-05-29T19:10:43.597Z,0.40
2018-05-29T19:13:09.857Z,0.40
2018-05-29T19:15:36.070Z,0.37
2018-05-29T19:18:02.433Z,0.70
2018-05-29T19:20:28.608Z,0.40
2018-05-29T19:22:54.989Z,0.50
2018-05-29T19:25:21.475Z,0.47
2018-05-29T19:27:47.660Z,0.47
2018-05-29T19:30:13.818Z,0.60
2018-05-29T19:32:40.250Z,0.70
2018-05-29T19:35:06.452Z,0.60
2018-05-29T19:37:32.645Z,0.70
2018-05-29T19:39:59.229Z,0.83
2018-05-29T19:42:25.383Z,0.73
2018-05-29T19:44:51.564Z,0.50
2018-05-29T19:47:18.136Z,0.60
2018-05-29T19:49:44.344Z,0.50
2018-05-29T19:52:10.497Z,0.57
2018-05-29T19:54:37.064Z,0.63
2018-05-29T19:57:03.288Z,0.70
2018-05-29T19:59:29.493Z,0.53
2018-05-29T20:01:55.985Z,0.40
2018-05-29T20:04:22.254Z,0.47
2018-05-29T20:06:48.529Z,0.57
2018-05-29T20:09:14.938Z,0.50
2018-05-29T20:11:41.144Z,0.80
2018-05-29T20:14:07.273Z,0.53
2018-05-29T20:16:33.583Z,0.30
2018-05-29T20:18:59.772Z,0.93
2018-05-29T20:21:25.999Z,0.30
2018-05-29T20:23:52.432Z,0.50
2018-05-29T20:26:18.656Z,0.57
2018-05-29T20:28:44.834Z,0.70
2018-05-29T20:31:11.322Z,0.50
2018-05-29T20:33:37.504Z,0.60
2018-05-29T20:36:03.774Z,0.40
2018-05-29T20:38:30.331Z,0.40
2018-05-29T20:40:56.534Z,0.40
2018-05-29T20:43:22.723Z,0.50
2018-05-29T20:45:49.266Z,0.50
2018-05-29T20:48:15.473Z,0.40
2018-05-29T20:50:41.674Z,0.60
2018-05-29T20:53:08.200Z,0.40
2018-05-29T20:55:34.374Z,0.47
2018-05-29T20:58:00.596Z,0.60
2018-05-29T21:00:27.167Z,0.40
2018-05-29T21:02:53.338Z,0.50
2018-05-29T21:05:19.528Z,0.40
2018-05-29T21:07:46.316Z,0.40
2018-05-29T21:10:12.512Z,0.40
2018-05-29T21:12:38.696Z,0.50
2018-05-29T21:15:05.109Z,0.30
2018-05-29T21:17:31.320Z,0.20
2018-05-29T21:19:57.466Z,0.20
2018-05-29T21:22:24.092Z,0.13
2018-05-29T21:24:50.267Z,0.33
2018-05-29T21:27:16.482Z,0.20
2018-05-29T21:29:42.920Z,0.17
2018-05-29T21:32:09.086Z,0.23
2018-05-29T21:34:35.239Z,0.20
2018-05-29T21:37:02.113Z,0.03
2018-05-29T21:39:28.266Z,0.10
2018-05-29T21:41:54.461Z,0.20
2018-05-29T21:44:20.975Z,0.30
2018-05-29T21:46:47.153Z,0.10
2018-05-29T21:49:13.296Z,0.30
2018-05-29T21:51:39.879Z,0.10
2018-05-29T21:54:06.134Z,0.20
2018-05-29T21:56:32.291Z,0.20
2018-05-29T21:58:58.859Z,0.10
2018-05-29T22:01:25.084Z,0.13
2018-05-29T22:03:51.240Z,0.30
2018-05-29T22:06:17.932Z,0.30
2018-05-29T22:08:44.191Z,0.20
2018-05-29T22:11:10.323Z,0.20
2018-05-29T22:13:36.782Z,0.17
2018-05-29T22:16:03.112Z,0.23
2018-05-29T22:18:29.254Z,0.30
2018-05-29T22:20:55.906Z,0.13
2018-05-29T22:23:22.034Z,0.10
2018-05-29T22:25:48.184Z,0.20
2018-05-29T22:28:14.784Z,0.10
2018-05-29T22:30:41.116Z,0.20
2018-05-29T22:33:07.223Z,0.20
2018-05-29T22:35:33.715Z,0.23
2018-05-29T22:37:59.916Z,0.20
2018-05-29T22:40:26.085Z,0.10
2018-05-29T22:42:52.515Z,0.13
2018-05-29T22:45:18.771Z,0.10
2018-05-29T22:47:44.921Z,0.10
2018-05-29T22:50:11.504Z,0.17
2018-05-29T22:52:37.673Z,0.20
2018-05-29T22:55:03.913Z,0.10
2018-05-29T22:57:30.421Z,0.10
2018-05-29T22:59:56.581Z,0.00
2018-05-29T23:02:22.744Z,0.10
2018-05-29T23:04:49.281Z,0.10
2018-05-29T23:07:15.555Z,0.10
2018-05-29T23:09:41.903Z,0.20
2018-05-29T23:12:08.370Z,0.20
2018-05-29T23:14:34.626Z,0.23
2018-05-29T23:17:00.854Z,0.10
2018-05-29T23:19:27.500Z,0.20
2018-05-29T23:21:53.780Z,0.20
2018-05-29T23:24:20.002Z,0.10
2018-05-29T23:26:46.518Z,0.10
2018-05-29T23:29:12.734Z,0.10
2018-05-29T23:31:38.981Z,0.20
2018-05-29T23:34:05.711Z,0.10
2018-05-29T23:36:31.927Z,0.10
2018-05-29T23:38:58.195Z,0.20
2018-05-29T23:41:24.735Z,0.20
2018-05-29T23:43:50.958Z,0.20
2018-05-29T23:46:17.223Z,0.10
2018-05-29T23:48:43.746Z,0.20
2018-05-29T23:51:10.001Z,0.13
2018-05-29T23:53:36.199Z,0.10
2018-05-29T23:56:02.830Z,0.10
2018-05-29T23:58:29.145Z,0.20
